Time;durP1;ratioP1;P1;durP2;ratioP2;P2;SDS_P1;SDS_P2;PMS_P1;PMS_P2;Temp;Humidity;BMP_temperature;BMP_pressure;BME280_temperature;BME280_humidity;BME280_pressure;Samples;Min_cycle;Max_cycle;Signal;HPM_P1;HPM_P2
2022/07/04 00:00:52;;;;;;;4.30;1.20;;;20.50;61.80;;;;;;5010406;28;20037;-78
2022/07/04 00:03:17;;;;;;;5.05;1.30;;;20.60;62.50;;;;;;5010401;28;20025;-78
2022/07/04 00:05:43;;;;;;;2.72;1.10;;;20.50;61.50;;;;;;5009985;28;20367;-78
2022/07/04 00:08:08;;;;;;;1.27;0.90;;;20.50;61.60;;;;;;5010273;28;20028;-78
2022/07/04 00:10:34;;;;;;;1.42;0.80;;;20.60;61.70;;;;;;5010173;28;20034;-77
2022/07/04 00:12:59;;;;;;;1.98;0.90;;;20.70;61.50;;;;;;5010314;28;20018;-77
2022/07/04 00:15:25;;;;;;;2.78;0.90;;;20.70;61.50;;;;;;5008881;28;20112;-77
2022/07/04 00:17:51;;;;;;;2.33;1.15;;;20.80;61.30;;;;;;5009961;28;20209;-77
2022/07/04 00:20:17;;;;;;;2.92;1.20;;;20.80;61.60;;;;;;5010194;28;20091;-77
2022/07/04 00:22:44;;;;;;;3.35;1.02;;;20.90;61.80;;;;;;5010204;28;20022;-78
2022/07/04 00:25:10;;;;;;;2.55;0.90;;;20.80;61.80;;;;;;5010071;28;20025;-77
2022/07/04 00:27:35;;;;;;;1.55;0.90;;;20.90;61.60;;;;;;5009935;28;20022;-78
2022/07/04 00:30:02;;;;;;;1.13;0.93;;;20.90;61.80;;;;;;5009697;28;20046;-78
2022/07/04 00:32:28;;;;;;;2.20;1.05;;;20.90;61.90;;;;;;5009995;28;20498;-75
2022/07/04 00:34:53;;;;;;;1.90;0.88;;;20.90;61.90;;;;;;5009796;28;20199;-77
2022/07/04 00:37:19;;;;;;;1.48;1.08;;;21.00;61.70;;;;;;5010084;28;20028;-77
2022/07/04 00:39:44;;;;;;;1.30;1.00;;;21.00;61.30;;;;;;5009984;28;20458;-78
2022/07/04 00:42:10;;;;;;;3.35;0.90;;;21.00;60.80;;;;;;5009921;28;20029;-78
2022/07/04 00:44:36;;;;;;;2.35;1.10;;;21.00;60.70;;;;;;5009924;28;20375;-78
2022/07/04 00:47:03;;;;;;;2.15;1.25;;;21.00;60.80;;;;;;5009971;28;20033;-78
2022/07/04 00:49:29;;;;;;;3.28;1.02;;;21.00;60.50;;;;;;5009715;28;20056;-78
2022/07/04 00:51:55;;;;;;;3.65;1.00;;;21.00;60.40;;;;;;5009855;28;20093;-78
2022/07/04 00:54:26;;;;;;;3.08;1.10;;;21.00;60.90;;;;;;5009683;28;20034;-78
2022/07/04 00:56:52;;;;;;;1.40;0.90;;;21.10;61.00;;;;;;5009788;28;20049;-76
2022/07/04 00:59:18;;;;;;;2.28;0.85;;;20.90;61.80;;;;;;5009805;28;20033;-76
2022/07/04 01:01:44;;;;;;;2.58;0.82;;;20.90;62.20;;;;;;5009622;28;20022;-78
2022/07/04 01:04:09;;;;;;;2.53;1.30;;;20.90;63.00;;;;;;5009868;28;20021;-78
2022/07/04 01:06:35;;;;;;;1.20;1.08;;;20.90;64.40;;;;;;5009672;28;20107;-78
2022/07/04 01:09:00;;;;;;;1.20;1.10;;;20.80;64.40;;;;;;5009884;28;20026;-76
2022/07/04 01:11:26;;;;;;;3.75;1.30;;;20.80;64.40;;;;;;5009519;28;20030;-77
2022/07/04 01:13:55;;;;;;;2.55;1.45;;;20.70;65.20;;;;;;5009686;28;20111;-76
2022/07/04 01:16:21;;;;;;;4.35;1.50;;;20.70;65.40;;;;;;5010384;28;20026;-76
2022/07/04 01:18:46;;;;;;;2.58;1.17;;;20.70;66.60;;;;;;5012823;28;20033;-76
2022/07/04 01:21:13;;;;;;;3.28;1.10;;;20.60;67.00;;;;;;5012839;28;20082;-76
2022/07/04 01:23:39;;;;;;;1.20;0.90;;;20.60;66.80;;;;;;5012718;28;20102;-76
2022/07/04 01:26:05;;;;;;;1.17;0.88;;;20.60;67.40;;;;;;5012834;28;20492;-75
2022/07/04 01:28:31;;;;;;;1.20;1.05;;;20.60;68.80;;;;;;5012936;28;20030;-76
2022/07/04 01:30:57;;;;;;;1.63;0.90;;;20.60;69.50;;;;;;5012623;28;20045;-76
2022/07/04 01:33:23;;;;;;;1.45;0.90;;;20.70;70.10;;;;;;5012815;28;20397;-76
2022/07/04 01:35:48;;;;;;;1.45;1.15;;;20.70;70.00;;;;;;5012558;28;20502;-77
2022/07/04 01:38:14;;;;;;;2.40;1.10;;;20.70;70.20;;;;;;5012565;28;20442;-77
2022/07/04 01:40:40;;;;;;;3.72;1.33;;;20.70;70.20;;;;;;5012625;28;20026;-76
2022/07/04 01:43:05;;;;;;;2.10;1.08;;;20.70;70.40;;;;;;5012547;28;20022;-76
2022/07/04 01:45:37;;;;;;;2.90;1.20;;;20.70;70.90;;;;;;5012449;28;20580;-76
2022/07/04 01:48:06;;;;;;;2.95;1.00;;;20.70;71.10;;;;;;5012544;28;20451;-76
2022/07/04 01:50:32;;;;;;;1.15;1.00;;;20.70;70.80;;;;;;5012467;28;20053;-76
2022/07/04 01:52:58;;;;;;;1.40;1.13;;;20.70;70.80;;;;;;5012668;28;20098;-76
2022/07/04 01:55:24;;;;;;;1.00;0.90;;;20.70;70.80;;;;;;5012240;28;20482;-76
2022/07/04 01:57:49;;;;;;;1.23;0.98;;;20.70;70.70;;;;;;5016930;28;20029;-76
2022/07/04 02:02:59;;;;;;;2.30;1.00;;;20.60;70.30;;;;;;5012353;28;20032;-76
2022/07/04 02:05:25;;;;;;;1.85;1.50;;;20.60;70.80;;;;;;5012098;28;20034;-76
2022/07/04 02:07:51;;;;;;;3.58;1.60;;;20.50;71.10;;;;;;5012317;28;20022;-76
2022/07/04 02:10:17;;;;;;;5.43;1.30;;;20.40;70.70;;;;;;5012137;28;20038;-76
2022/07/04 02:13:01;;;;;;;2.63;0.98;;;20.40;70.40;;;;;;5011963;28;20030;-76
2022/07/04 02:15:41;;;;;;;3.60;1.10;;;20.30;70.20;;;;;;5011949;28;20037;-77
2022/07/04 02:18:09;;;;;;;1.52;1.13;;;20.30;70.60;;;;;;5012258;28;20453;-77
2022/07/04 02:20:36;;;;;;;1.60;1.33;;;20.30;70.70;;;;;;5011899;28;20487;-76
2022/07/04 02:23:03;;;;;;;2.55;1.23;;;20.30;70.90;;;;;;5011920;28;20033;-77
2022/07/04 02:25:29;;;;;;;2.50;1.35;;;20.40;71.10;;;;;;5011875;28;20035;-75
2022/07/04 02:27:55;;;;;;;2.97;1.17;;;20.30;71.50;;;;;;5010375;28;20026;-75
2022/07/04 02:30:21;;;;;;;2.65;1.20;;;20.30;71.20;;;;;;5011708;28;20042;-76
2022/07/04 02:32:46;;;;;;;1.90;1.23;;;20.30;70.90;;;;;;5011602;28;20029;-76
2022/07/04 02:35:12;;;;;;;1.42;1.00;;;20.30;70.60;;;;;;5011812;28;20375;-76
2022/07/04 02:37:38;;;;;;;3.47;1.30;;;20.30;71.50;;;;;;5011943;28;20029;-75
2022/07/04 02:40:04;;;;;;;3.88;1.23;;;20.30;70.70;;;;;;5011593;28;20527;-76
2022/07/04 02:42:31;;;;;;;4.05;1.20;;;20.30;70.80;;;;;;5011448;28;20060;-76
2022/07/04 02:44:57;;;;;;;2.42;1.08;;;20.30;70.90;;;;;;5011691;28;20022;-76
2022/07/04 02:47:22;;;;;;;2.67;1.30;;;20.30;71.80;;;;;;5011646;28;20539;-76
2022/07/04 02:49:48;;;;;;;1.50;1.20;;;20.30;71.10;;;;;;5011573;28;20033;-77
2022/07/04 02:52:15;;;;;;;3.45;1.58;;;20.30;71.10;;;;;;5011656;28;20037;-77
2022/07/04 02:54:41;;;;;;;3.13;1.48;;;20.30;71.40;;;;;;5011406;28;20045;-76
2022/07/04 02:57:07;;;;;;;1.58;1.20;;;20.30;71.10;;;;;;5011189;28;20026;-76
2022/07/04 02:59:33;;;;;;;1.58;1.20;;;20.20;71.40;;;;;;5011367;28;20395;-76
2022/07/04 03:01:58;;;;;;;2.33;1.27;;;20.20;71.30;;;;;;5010921;28;20034;-76
2022/07/04 03:04:24;;;;;;;1.65;1.27;;;20.20;71.40;;;;;;5011327;28;20018;-76
2022/07/04 03:06:49;;;;;;;2.42;1.17;;;20.10;71.60;;;;;;5011332;28;20022;-77
2022/07/04 03:09:15;;;;;;;2.92;1.30;;;20.10;71.50;;;;;;5011298;28;20034;-77
2022/07/04 03:11:40;;;;;;;2.50;1.27;;;20.20;71.30;;;;;;5011212;28;20030;-77
2022/07/04 03:14:06;;;;;;;3.80;1.30;;;20.10;71.40;;;;;;5011290;28;20090;-78
2022/07/04 03:16:31;;;;;;;3.03;1.58;;;20.10;71.60;;;;;;5010958;28;20109;-77
2022/07/04 03:18:57;;;;;;;5.28;1.42;;;20.00;71.70;;;;;;5011153;28;20095;-78
2022/07/04 03:21:23;;;;;;;2.97;1.23;;;20.00;71.90;;;;;;5011180;28;20022;-78
2022/07/04 03:23:57;;;;;;;4.13;1.08;;;20.10;72.10;;;;;;5011117;28;20486;-77
2022/07/04 03:26:29;;;;;;;2.55;1.33;;;20.10;72.20;;;;;;5010921;28;20033;-77
2022/07/04 03:28:55;;;;;;;2.85;0.90;;;20.10;72.20;;;;;;5010731;28;20045;-78
2022/07/04 03:31:21;;;;;;;2.53;1.00;;;20.00;72.00;;;;;;5010904;28;20070;-77
2022/07/04 03:33:46;;;;;;;4.20;1.00;;;20.10;72.20;;;;;;5010756;28;20057;-77
2022/07/04 03:36:12;;;;;;;2.15;1.05;;;20.10;72.20;;;;;;5009517;28;20505;-78
2022/07/04 03:38:37;;;;;;;1.20;0.93;;;20.00;72.30;;;;;;5010396;28;20026;-78
2022/07/04 03:41:03;;;;;;;1.65;1.20;;;19.90;72.60;;;;;;5010432;28;20034;-77
2022/07/04 03:43:28;;;;;;;2.30;1.20;;;19.90;72.80;;;;;;5010576;28;20065;-77
2022/07/04 03:45:54;;;;;;;2.13;1.23;;;19.90;73.10;;;;;;5010381;28;20026;-77
2022/07/04 03:48:20;;;;;;;2.17;1.33;;;19.90;73.00;;;;;;5010438;28;20025;-77
2022/07/04 03:50:46;;;;;;;3.15;1.27;;;19.80;73.60;;;;;;5010795;28;20044;-77
2022/07/04 03:53:12;;;;;;;2.13;1.40;;;19.80;73.60;;;;;;5010309;28;20425;-76
2022/07/04 03:55:38;;;;;;;2.97;1.25;;;19.70;73.80;;;;;;5010505;28;20060;-79
2022/07/04 03:58:05;;;;;;;2.60;1.52;;;19.70;74.00;;;;;;5010539;28;20420;-77
2022/07/04 04:00:31;;;;;;;1.75;1.25;;;19.70;74.10;;;;;;5010397;28;20021;-76
2022/07/04 04:02:57;;;;;;;2.78;1.30;;;19.70;74.10;;;;;;5010298;28;20033;-77
2022/07/04 04:05:26;;;;;;;3.00;1.00;;;19.70;74.00;;;;;;5010314;28;20030;-77
2022/07/04 04:07:55;;;;;;;2.38;1.23;;;19.70;73.90;;;;;;5010267;28;20037;-76
2022/07/04 04:10:21;;;;;;;3.10;1.33;;;19.70;74.10;;;;;;5010066;28;20116;-76
2022/07/04 04:12:47;;;;;;;1.80;1.25;;;19.70;74.10;;;;;;5009067;28;20022;-77
2022/07/04 04:15:13;;;;;;;2.13;1.30;;;19.60;74.10;;;;;;5010235;28;20040;-76
2022/07/04 04:17:38;;;;;;;4.13;1.60;;;19.70;74.00;;;;;;5010165;28;20097;-76
2022/07/04 04:20:04;;;;;;;2.58;1.10;;;19.60;73.80;;;;;;5010113;28;20034;-77
2022/07/04 04:22:30;;;;;;;1.50;1.00;;;19.60;73.80;;;;;;5008463;28;20029;-76
2022/07/04 04:24:57;;;;;;;2.15;1.10;;;19.70;73.70;;;;;;5010027;28;20026;-77
2022/07/04 04:27:22;;;;;;;4.72;1.27;;;19.70;73.40;;;;;;5008587;28;20029;-76
2022/07/04 04:29:48;;;;;;;5.28;1.45;;;19.70;73.20;;;;;;5009518;28;20046;-77
2022/07/04 04:32:13;;;;;;;2.38;1.27;;;19.70;72.90;;;;;;5009987;28;20022;-76
2022/07/04 04:34:39;;;;;;;3.72;1.17;;;19.70;72.80;;;;;;5009864;28;20018;-77
2022/07/04 04:37:04;;;;;;;2.70;1.20;;;19.80;72.50;;;;;;5009439;28;20038;-76
2022/07/04 04:39:30;;;;;;;3.08;1.50;;;19.80;71.90;;;;;;5009810;28;20489;-76
2022/07/04 04:41:56;;;;;;;2.63;0.98;;;19.90;71.80;;;;;;5009578;28;20050;-77
2022/07/04 04:44:21;;;;;;;1.88;1.10;;;19.90;71.50;;;;;;5009564;28;20030;-75
2022/07/04 04:46:47;;;;;;;2.28;1.15;;;19.90;71.20;;;;;;5008467;28;20018;-76
2022/07/04 04:49:12;;;;;;;1.70;1.20;;;20.00;71.20;;;;;;5009559;28;20036;-76
2022/07/04 04:51:38;;;;;;;3.50;1.23;;;20.00;71.10;;;;;;5010948;28;20091;-76
2022/07/04 04:54:04;;;;;;;3.33;1.33;;;20.10;71.10;;;;;;5013184;28;20052;-77
2022/07/04 04:56:30;;;;;;;2.90;1.30;;;20.00;70.90;;;;;;5012974;28;20038;-77
2022/07/04 04:58:56;;;;;;;2.97;1.58;;;20.00;70.70;;;;;;5013066;28;20079;-76
2022/07/04 05:01:21;;;;;;;6.75;1.52;;;20.00;70.00;;;;;;5013143;28;20557;-76
2022/07/04 05:03:47;;;;;;;5.90;1.83;;;20.10;70.00;;;;;;5012941;28;20021;-76
2022/07/04 05:06:12;;;;;;;3.15;1.52;;;20.10;69.70;;;;;;5012905;28;20033;-76
2022/07/04 05:08:38;;;;;;;4.07;1.60;;;20.10;69.80;;;;;;5012965;28;20083;-77
2022/07/04 05:11:03;;;;;;;2.35;1.25;;;20.20;69.60;;;;;;5012600;28;20034;-77
2022/07/04 05:13:29;;;;;;;3.67;1.33;;;20.20;69.60;;;;;;5012852;28;20026;-77
2022/07/04 05:15:55;;;;;;;4.05;1.35;;;20.20;69.70;;;;;;5012906;28;20045;-77
2022/07/04 05:18:20;;;;;;;3.03;1.40;;;20.30;69.50;;;;;;5012731;28;20037;-76
2022/07/04 05:20:46;;;;;;;3.67;1.38;;;20.30;69.30;;;;;;5012580;28;20033;-76
2022/07/04 05:23:11;;;;;;;2.33;1.58;;;20.30;69.20;;;;;;5012507;28;20026;-76
2022/07/04 05:25:37;;;;;;;5.35;1.60;;;20.30;69.30;;;;;;5012571;28;20050;-77
2022/07/04 05:28:02;;;;;;;2.70;1.30;;;20.30;68.30;;;;;;5012656;28;20026;-77
2022/07/04 05:30:28;;;;;;;2.35;1.20;;;20.30;67.40;;;;;;5011823;28;20138;-75
2022/07/04 05:32:54;;;;;;;1.63;1.35;;;20.30;66.70;;;;;;5012158;28;20083;-75
2022/07/04 05:35:19;;;;;;;2.95;1.48;;;20.30;66.20;;;;;;5012348;28;20032;-76
2022/07/04 05:37:45;;;;;;;1.95;1.20;;;20.30;66.20;;;;;;5012238;28;20452;-77
2022/07/04 05:40:11;;;;;;;3.35;1.30;;;20.40;66.40;;;;;;5012248;28;20030;-77
2022/07/04 05:42:37;;;;;;;1.85;1.05;;;20.40;66.80;;;;;;5012230;28;20102;-76
2022/07/04 05:45:03;;;;;;;5.03;1.40;;;20.40;66.10;;;;;;5012163;28;20109;-76
2022/07/04 05:47:28;;;;;;;2.28;1.20;;;20.50;65.40;;;;;;5011939;28;20494;-76
2022/07/04 05:49:54;;;;;;;2.05;1.15;;;20.50;65.40;;;;;;5011589;28;20030;-76
2022/07/04 05:52:19;;;;;;;3.53;1.70;;;20.50;65.70;;;;;;5012112;28;20161;-76
2022/07/04 05:54:45;;;;;;;5.55;1.65;;;20.50;66.20;;;;;;5012006;28;20383;-76
2022/07/04 05:57:11;;;;;;;2.55;1.23;;;20.20;67.40;;;;;;5011871;28;20056;-75
2022/07/04 05:59:36;;;;;;;2.53;1.50;;;20.20;67.70;;;;;;5010520;28;20033;-76
2022/07/04 06:02:02;;;;;;;2.75;1.88;;;20.30;68.00;;;;;;5011328;28;20165;-75
2022/07/04 06:04:28;;;;;;;3.67;1.65;;;20.20;68.30;;;;;;5011822;28;20026;-76
2022/07/04 06:06:53;;;;;;;3.40;1.58;;;20.20;68.10;;;;;;5011933;28;20398;-76
2022/07/04 06:09:19;;;;;;;5.03;1.77;;;20.30;68.00;;;;;;5012026;28;20033;-76
2022/07/04 06:11:45;;;;;;;5.60;2.33;;;20.30;67.80;;;;;;5011804;28;20022;-77
2022/07/04 06:14:10;;;;;;;5.05;2.05;;;20.20;68.00;;;;;;5011858;28;20477;-76
2022/07/04 06:16:36;;;;;;;4.38;1.92;;;20.40;67.90;;;;;;5011393;28;20101;-77
2022/07/04 06:19:02;;;;;;;4.85;1.88;;;20.50;66.70;;;;;;5011704;28;20030;-76
2022/07/04 06:21:27;;;;;;;3.13;1.63;;;20.40;66.90;;;;;;5011513;28;20395;-76
2022/07/04 06:23:53;;;;;;;3.03;1.23;;;20.30;66.90;;;;;;5011180;28;20061;-77
2022/07/04 06:26:18;;;;;;;2.83;1.67;;;20.50;66.70;;;;;;5011327;28;20030;-76
2022/07/04 06:28:44;;;;;;;2.90;1.45;;;20.70;66.10;;;;;;5011542;28;20078;-77
2022/07/04 06:31:11;;;;;;;4.68;1.40;;;20.90;65.20;;;;;;5011462;28;20053;-77
2022/07/04 06:35:44;;;;;;;5.97;1.70;;;21.00;64.00;;;;;;5011326;28;20410;-77
2022/07/04 06:36:23;;;;;;;;;;;21.10;64.10;;;;;;5012186;28;20032;-77
2022/07/04 06:38:48;;;;;;;3.67;1.83;;;21.20;64.10;;;;;;5011660;28;20344;-76
2022/07/04 06:41:14;;;;;;;2.53;1.38;;;21.20;63.60;;;;;;5011580;28;20113;-82
2022/07/04 06:43:40;;;;;;;4.03;1.38;;;21.20;63.40;;;;;;5012891;28;20113;-85
2022/07/04 06:46:05;;;;;;;3.20;1.67;;;21.30;66.40;;;;;;5011235;28;20030;-83
2022/07/04 06:48:31;;;;;;;6.15;1.70;;;21.50;65.30;;;;;;5010800;28;20033;-86
2022/07/04 06:50:56;;;;;;;4.43;1.40;;;21.80;63.60;;;;;;5011913;28;20034;-82
2022/07/04 06:53:22;;;;;;;4.63;1.65;;;21.80;63.00;;;;;;5010788;28;20040;-84
2022/07/04 06:55:48;;;;;;;1.85;1.30;;;21.90;62.00;;;;;;5011547;28;20030;-83
2022/07/04 06:58:13;;;;;;;2.80;1.42;;;22.00;62.20;;;;;;5011551;28;20022;-84
2022/07/04 07:00:41;;;;;;;3.30;1.73;;;22.20;61.50;;;;;;5009767;28;20359;-81
2022/07/04 07:03:06;;;;;;;8.25;1.83;;;22.30;59.60;;;;;;5012252;28;20030;-81
2022/07/04 07:05:32;;;;;;;4.38;1.60;;;22.20;60.00;;;;;;5012901;28;20078;-79
2022/07/04 07:07:58;;;;;;;5.03;1.48;;;22.30;60.50;;;;;;5011426;28;20047;-81
2022/07/04 07:10:24;;;;;;;2.60;1.48;;;22.50;59.60;;;;;;5011000;28;20030;-74
2022/07/04 07:12:49;;;;;;;4.78;1.70;;;22.50;59.10;;;;;;5012247;28;20026;-76
2022/07/04 07:15:16;;;;;;;7.82;1.70;;;22.60;59.20;;;;;;5010481;28;20049;-77
2022/07/04 07:17:42;;;;;;;1.95;1.10;;;22.60;58.60;;;;;;5009590;28;20534;-76
2022/07/04 07:20:08;;;;;;;2.72;1.30;;;22.70;58.30;;;;;;5009441;28;20112;-75
2022/07/04 07:22:34;;;;;;;2.97;1.58;;;22.80;57.80;;;;;;5010621;28;20474;-77
2022/07/04 07:24:59;;;;;;;3.38;1.33;;;22.40;58.00;;;;;;5010579;28;20029;-76
2022/07/04 07:27:26;;;;;;;7.07;1.70;;;22.20;59.10;;;;;;5010677;28;20478;-76
2022/07/04 07:29:51;;;;;;;6.72;2.83;;;21.90;59.60;;;;;;5010373;28;20150;-76
2022/07/04 07:32:17;;;;;;;4.80;1.40;;;22.00;60.00;;;;;;5010576;28;20167;-77
2022/07/04 07:34:43;;;;;;;3.15;1.33;;;21.90;60.00;;;;;;5010371;28;20026;-78
2022/07/04 07:37:08;;;;;;;3.08;1.48;;;22.10;60.50;;;;;;5010380;28;20029;-77
2022/07/04 07:39:34;;;;;;;12.73;2.00;;;22.10;59.20;;;;;;5010364;28;20079;-77
2022/07/04 07:42:00;;;;;;;3.08;1.60;;;22.00;59.50;;;;;;5010260;28;20025;-76
2022/07/04 07:44:26;;;;;;;7.68;2.25;;;21.90;59.30;;;;;;5010324;28;20424;-76
2022/07/04 07:46:51;;;;;;;11.27;3.17;;;22.00;59.80;;;;;;5009997;28;20015;-77
2022/07/04 07:49:17;;;;;;;9.70;2.75;;;22.00;60.50;;;;;;5009651;28;20109;-76
2022/07/04 07:51:42;;;;;;;10.23;1.73;;;22.10;60.30;;;;;;5009975;28;20037;-77
2022/07/04 07:54:08;;;;;;;8.90;2.92;;;22.20;59.30;;;;;;5010016;28;20025;-77
2022/07/04 07:56:34;;;;;;;6.75;2.20;;;22.20;59.50;;;;;;5009917;28;20474;-78
2022/07/04 07:58:59;;;;;;;4.10;1.70;;;22.20;59.20;;;;;;5010186;28;20102;-78
2022/07/04 08:01:25;;;;;;;4.30;1.75;;;22.10;58.90;;;;;;5009887;28;20025;-78
2022/07/04 08:06:35;;;;;;;7.80;1.63;;;22.00;60.00;;;;;;5010107;28;20033;-78
2022/07/04 08:09:01;;;;;;;5.32;1.60;;;22.20;59.40;;;;;;5010855;28;20026;-78
2022/07/04 08:11:26;;;;;;;4.35;1.92;;;22.40;58.60;;;;;;5009854;28;20030;-78
2022/07/04 08:13:52;;;;;;;3.28;1.48;;;22.00;59.40;;;;;;5010057;28;20030;-77
2022/07/04 08:16:18;;;;;;;5.75;1.88;;;21.90;60.30;;;;;;5009915;28;20029;-78
2022/07/04 08:18:44;;;;;;;2.65;1.23;;;22.10;59.70;;;;;;5009742;28;20026;-78
2022/07/04 08:21:09;;;;;;;4.43;1.80;;;22.30;59.50;;;;;;5009956;28;20079;-77
2022/07/04 08:23:36;;;;;;;4.30;1.70;;;22.50;58.80;;;;;;5009768;28;20080;-77
2022/07/04 08:26:02;;;;;;;5.65;1.60;;;22.40;59.10;;;;;;5008478;28;20055;-78
2022/07/04 08:28:29;;;;;;;9.10;1.95;;;22.60;58.70;;;;;;5009012;28;20113;-76
2022/07/04 08:30:55;;;;;;;7.30;2.58;;;22.50;59.00;;;;;;5009433;28;20045;-75
2022/07/04 08:33:20;;;;;;;7.45;1.98;;;22.40;59.00;;;;;;5009242;28;20381;-77
2022/07/04 08:35:46;;;;;;;2.88;1.65;;;22.50;59.20;;;;;;5009162;28;20057;-76
2022/07/04 08:38:11;;;;;;;3.63;1.73;;;22.60;58.80;;;;;;5008257;28;20022;-76
2022/07/04 08:40:37;;;;;;;3.03;1.50;;;22.90;57.90;;;;;;5009232;28;20022;-76
2022/07/04 08:43:03;;;;;;;3.92;2.10;;;23.00;56.70;;;;;;5009085;28;20030;-74
2022/07/04 08:45:33;;;;;;;3.00;1.55;;;23.20;55.70;;;;;;5009413;28;20033;-75
2022/07/04 08:48:07;;;;;;;3.05;1.23;;;23.30;55.40;;;;;;5009179;28;20029;-76
2022/07/04 08:50:48;;;;;;;1.70;0.98;;;23.40;55.00;;;;;;5009324;28;20045;-77
2022/07/04 08:53:20;;;;;;;6.35;1.58;;;23.70;54.90;;;;;;5009230;28;20202;-76
2022/07/04 08:58:31;;;;;;;2.50;1.50;;;24.50;52.90;;;;;;5009556;28;20033;-76
2022/07/04 09:01:14;;;;;;;1.92;1.15;;;24.60;51.50;;;;;;5009373;28;20033;-76
2022/07/04 09:03:41;;;;;;;6.35;2.10;;;24.70;51.90;;;;;;5009174;28;20034;-76
2022/07/04 09:06:07;;;;;;;2.35;1.30;;;24.40;52.20;;;;;;5008897;28;20036;-76
2022/07/04 09:08:33;;;;;;;3.50;1.65;;;24.50;52.50;;;;;;5009341;28;20030;-76
2022/07/04 09:11:00;;;;;;;4.72;1.95;;;24.80;51.60;;;;;;5008803;28;20034;-80
2022/07/04 09:13:26;;;;;;;4.05;2.00;;;25.10;51.00;;;;;;5009028;28;20049;-76
2022/07/04 09:15:52;;;;;;;4.90;2.00;;;25.40;50.70;;;;;;5007806;28;20470;-82
2022/07/04 09:18:26;;;;;;;5.40;2.03;;;25.50;50.20;;;;;;5009193;28;20080;-81
2022/07/04 09:20:53;;;;;;;4.63;1.75;;;25.60;51.00;;;;;;5009478;28;20118;-77
2022/07/04 09:23:24;;;;;;;4.78;1.90;;;25.40;49.60;;;;;;5008982;28;20374;-78
2022/07/04 09:26:15;;;;;;;4.50;1.88;;;25.20;50.60;;;;;;5008977;28;20049;-75
2022/07/04 09:28:59;;;;;;;6.72;3.65;;;25.00;50.90;;;;;;5008071;28;20091;-77
2022/07/04 09:31:26;;;;;;;7.65;2.50;;;24.90;51.70;;;;;;5006164;28;20117;-78
2022/07/04 09:33:53;;;;;;;4.80;2.38;;;24.90;51.50;;;;;;5007231;28;20030;-76
2022/07/04 09:36:21;;;;;;;3.22;2.03;;;24.70;53.10;;;;;;5009661;28;20026;-77
2022/07/04 09:39:18;;;;;;;7.53;3.00;;;24.40;53.50;;;;;;5012023;28;20046;-77
2022/07/04 09:42:00;;;;;;;5.82;2.83;;;24.10;53.80;;;;;;5012840;28;20018;-76
2022/07/04 09:44:26;;;;;;;3.53;2.42;;;24.10;54.50;;;;;;5013401;28;20036;-78
2022/07/04 09:46:52;;;;;;;5.38;1.80;;;24.30;53.90;;;;;;5017441;28;20022;-77
2022/07/04 09:49:18;;;;;;;5.25;2.50;;;24.60;53.40;;;;;;5011788;28;20029;-78
2022/07/04 09:51:50;;;;;;;7.72;2.10;;;24.80;53.30;;;;;;5011995;28;20036;-76
2022/07/04 09:54:32;;;;;;;3.78;2.00;;;25.00;52.40;;;;;;5011909;28;20512;-78
2022/07/04 09:57:00;;;;;;;5.47;1.58;;;25.20;51.60;;;;;;5012010;28;20030;-79
2022/07/04 09:59:27;;;;;;;4.22;1.70;;;25.50;50.80;;;;;;5011967;28;20454;-79
2022/07/04 10:02:08;;;;;;;3.60;1.90;;;25.80;49.40;;;;;;5011846;28;20037;-79
2022/07/04 10:04:47;;;;;;;2.97;1.40;;;26.00;48.60;;;;;;5011661;28;20040;-78
2022/07/04 10:07:47;;;;;;;2.88;1.80;;;26.20;47.90;;;;;;5011592;28;20196;-78
2022/07/04 10:10:28;;;;;;;2.35;1.15;;;26.30;47.40;;;;;;5010025;28;20029;-78
2022/07/04 10:12:57;;;;;;;2.63;1.30;;;26.60;46.70;;;;;;5011515;28;20025;-78
2022/07/04 10:15:23;;;;;;;2.05;1.60;;;26.80;45.30;;;;;;5010826;28;20021;-78
2022/07/04 10:17:50;;;;;;;4.25;1.67;;;26.90;44.70;;;;;;5011329;28;20064;-82
2022/07/04 10:20:15;;;;;;;7.10;1.92;;;27.10;45.10;;;;;;5011534;28;20045;-79
2022/07/04 10:22:41;;;;;;;3.53;1.85;;;27.00;45.40;;;;;;5010704;28;20474;-77
2022/07/04 10:25:08;;;;;;;3.75;1.50;;;27.00;45.00;;;;;;5010972;28;20047;-77
2022/07/04 10:27:35;;;;;;;5.13;1.52;;;27.20;45.00;;;;;;5011443;28;20440;-78
2022/07/04 10:30:03;;;;;;;2.42;1.55;;;27.20;45.40;;;;;;5011010;28;20490;-77
2022/07/04 10:32:30;;;;;;;1.63;1.17;;;27.20;44.70;;;;;;5011186;28;20037;-82
2022/07/04 10:34:56;;;;;;;4.78;1.85;;;27.20;44.90;;;;;;5009980;28;20502;-80
2022/07/04 10:37:22;;;;;;;6.13;1.48;;;27.20;45.10;;;;;;5011296;28;20048;-76
2022/07/04 10:39:48;;;;;;;4.93;2.42;;;27.20;45.70;;;;;;5011631;28;20074;-77
2022/07/04 10:42:24;;;;;;;6.20;1.92;;;26.90;45.60;;;;;;5011422;28;20033;-78
2022/07/04 10:44:50;;;;;;;5.32;1.85;;;26.90;46.40;;;;;;5011220;28;20018;-77
2022/07/04 10:47:27;;;;;;;5.72;1.75;;;26.80;46.90;;;;;;5011260;28;20034;-78
2022/07/04 10:49:52;;;;;;;4.70;1.45;;;27.10;46.20;;;;;;5009547;28;20026;-77
2022/07/04 10:52:18;;;;;;;1.70;1.33;;;27.30;45.00;;;;;;5010560;28;20029;-78
2022/07/04 10:54:44;;;;;;;3.85;1.45;;;27.70;43.70;;;;;;5010990;28;20026;-78
2022/07/04 10:57:19;;;;;;;2.10;1.42;;;28.10;43.60;;;;;;5009183;28;20113;-81
2022/07/04 10:59:54;;;;;;;2.85;1.67;;;28.50;41.80;;;;;;5011228;28;20033;-79
2022/07/04 11:02:19;;;;;;;2.42;1.60;;;28.80;40.30;;;;;;5010796;28;20022;-78
2022/07/04 11:04:57;;;;;;;2.85;1.52;;;28.80;40.00;;;;;;5011028;28;20037;-78
2022/07/04 11:07:43;;;;;;;2.72;1.45;;;28.90;39.90;;;;;;5011523;28;20451;-80
2022/07/04 11:12:55;;;;;;;3.63;1.60;;;28.90;40.00;;;;;;5011884;28;20473;-80
2022/07/04 11:15:32;;;;;;;4.38;1.17;;;29.00;40.20;;;;;;5009492;28;20030;-76
2022/07/04 11:17:59;;;;;;;2.42;1.27;;;28.90;39.20;;;;;;5011020;28;20029;-76
2022/07/04 11:20:27;;;;;;;3.20;1.80;;;28.80;38.80;;;;;;5010870;28;20564;-77
2022/07/04 11:23:13;;;;;;;2.05;1.50;;;28.50;39.80;;;;;;5010678;28;20371;-76
2022/07/04 11:25:42;;;;;;;4.85;1.42;;;28.40;40.10;;;;;;5011044;28;20045;-83
2022/07/04 11:28:24;;;;;;;2.13;1.48;;;28.30;40.60;;;;;;5011511;28;20387;-84
2022/07/04 11:30:54;;;;;;;3.97;1.42;;;28.30;41.30;;;;;;5010211;28;20375;-79
2022/07/04 11:33:24;;;;;;;3.13;1.60;;;28.20;40.70;;;;;;5010524;28;20022;-80
2022/07/04 11:36:09;;;;;;;3.45;1.70;;;28.00;41.60;;;;;;5010267;28;20075;-86
2022/07/04 11:38:55;;;;;;;3.55;1.23;;;27.30;42.70;;;;;;5010566;28;20057;-79
2022/07/04 11:47:08;;;;;;;4.22;1.48;;;27.00;44.00;;;;;;5010673;28;20075;-79
2022/07/04 11:49:34;;;;;;;2.75;1.67;;;26.80;43.60;;;;;;5010119;28;20030;-80
2022/07/04 11:52:00;;;;;;;2.30;1.38;;;27.00;43.50;;;;;;5010095;28;20052;-78
2022/07/04 11:54:26;;;;;;;2.47;1.40;;;27.40;42.90;;;;;;5009956;28;20067;-78
2022/07/04 11:56:52;;;;;;;2.85;1.73;;;27.60;42.00;;;;;;5010272;28;20030;-80
2022/07/04 11:59:17;;;;;;;3.35;1.23;;;28.00;40.80;;;;;;5010568;28;20376;-82
2022/07/04 12:01:44;;;;;;;3.92;1.45;;;28.10;41.30;;;;;;5013396;28;20018;-79
2022/07/04 12:04:20;;;;;;;3.85;1.30;;;28.50;40.40;;;;;;5013451;28;20147;-83
2022/07/04 12:06:47;;;;;;;3.40;1.33;;;28.60;39.50;;;;;;5010131;28;20087;-78
2022/07/04 12:09:16;;;;;;;5.80;1.42;;;28.50;39.80;;;;;;5010022;28;20034;-76
2022/07/04 12:11:58;;;;;;;1.50;1.40;;;28.10;39.60;;;;;;5008951;28;20049;-77
2022/07/04 12:14:25;;;;;;;3.10;1.40;;;27.70;40.50;;;;;;5008805;28;20491;-77
2022/07/04 12:17:14;;;;;;;2.25;1.27;;;28.00;40.00;;;;;;5010050;28;20056;-78
2022/07/04 12:20:00;;;;;;;4.60;1.30;;;28.50;40.30;;;;;;5009751;28;20022;-78
2022/07/04 12:22:38;;;;;;;4.05;1.58;;;28.90;37.70;;;;;;5008557;28;20090;-77
2022/07/04 12:25:07;;;;;;;2.03;1.30;;;28.50;38.10;;;;;;5010139;28;20049;-82
2022/07/04 12:27:34;;;;;;;2.22;1.25;;;28.40;38.90;;;;;;5010290;28;20041;-77
2022/07/04 12:30:01;;;;;;;5.10;1.58;;;28.80;38.60;;;;;;5013247;28;20042;-77
2022/07/04 12:32:50;;;;;;;4.68;1.60;;;29.00;37.90;;;;;;5008861;28;20162;-81
2022/07/04 12:35:38;;;;;;;3.33;1.42;;;29.20;37.80;;;;;;5010571;28;20014;-77
2022/07/04 12:38:07;;;;;;;3.38;1.85;;;29.20;37.20;;;;;;5010165;28;20378;-77
2022/07/04 12:40:34;;;;;;;11.05;2.78;;;29.40;36.70;;;;;;5010017;28;20083;-77
2022/07/04 12:42:59;;;;;;;3.10;1.27;;;29.70;36.30;;;;;;5010221;28;20022;-75
2022/07/04 12:45:26;;;;;;;3.30;1.38;;;29.70;36.00;;;;;;5010225;28;20575;-77
2022/07/04 12:47:54;;;;;;;2.15;1.25;;;29.80;35.90;;;;;;5008484;28;20022;-77
2022/07/04 12:50:27;;;;;;;2.45;1.20;;;30.00;36.80;;;;;;5009837;28;20033;-77
2022/07/04 12:52:53;;;;;;;3.30;1.33;;;30.30;34.70;;;;;;5009560;28;20022;-78
2022/07/04 12:55:18;;;;;;;4.13;1.33;;;30.30;34.90;;;;;;5009575;28;20037;-76
2022/07/04 12:57:44;;;;;;;3.70;1.38;;;30.00;35.90;;;;;;5009521;28;20092;-78
2022/07/04 13:00:10;;;;;;;5.70;1.20;;;29.90;35.10;;;;;;5008129;28;20022;-78
2022/07/04 13:02:35;;;;;;;2.35;1.20;;;29.80;35.10;;;;;;5009497;28;20057;-76
2022/07/04 13:05:01;;;;;;;1.80;1.20;;;29.90;35.20;;;;;;5009645;28;20395;-78
2022/07/04 13:07:26;;;;;;;7.32;1.75;;;29.50;36.70;;;;;;5009470;28;20036;-76